Time;durP1;ratioP1;P1;durP2;ratioP2;P2;SDS_P1;SDS_P2;PMS_P1;PMS_P2;Temp;Humidity;BMP_temperature;BMP_pressure;BME280_temperature;BME280_humidity;BME280_pressure;Samples;Min_cycle;Max_cycle;Signal;HPM_P1;HPM_P2
2023/01/23 00:01:37;;;;;;;113.97;17.90;;;-8.10;99.90;;;;;;4965921;28;20781;-72
2023/01/23 00:04:04;;;;;;;40.50;14.45;;;-8.00;99.90;;;;;;4950347;28;20043;-72
2023/01/23 00:06:32;;;;;;;94.75;16.00;;;-8.00;99.90;;;;;;4968888;28;20043;-72
2023/01/23 00:09:00;;;;;;;107.15;18.55;;;-7.90;99.90;;;;;;4950485;28;20188;-72
2023/01/23 00:11:29;;;;;;;27.05;15.13;;;-7.80;99.90;;;;;;4945666;28;20431;-72
2023/01/23 00:14:01;;;;;;;20.52;12.77;;;-7.80;99.90;;;;;;4948578;28;20066;-72
2023/01/23 00:16:31;;;;;;;147.98;30.42;;;-8.00;99.90;;;;;;4967144;28;20050;-72
2023/01/23 00:18:59;;;;;;;36.88;16.13;;;-8.20;99.90;;;;;;4950459;28;20055;-72
2023/01/23 00:21:27;;;;;;;30.75;16.48;;;-8.40;99.90;;;;;;4967945;28;20058;-72
2023/01/23 00:23:57;;;;;;;69.50;14.10;;;-8.30;99.90;;;;;;4939541;28;20046;-72
2023/01/23 00:26:28;;;;;;;48.80;15.23;;;-8.20;99.90;;;;;;4967600;28;20073;-72
2023/01/23 00:28:55;;;;;;;31.42;15.07;;;-8.00;99.90;;;;;;4967861;28;20046;-72
2023/01/23 00:31:26;;;;;;;18.85;12.35;;;-7.80;99.90;;;;;;4958082;28;20055;-73
2023/01/23 00:33:58;;;;;;;25.33;10.98;;;-7.60;99.90;;;;;;4922159;29;20055;-72
2023/01/23 00:36:35;;;;;;;18.02;12.80;;;-7.60;99.90;;;;;;4963048;28;20054;-72
2023/01/23 00:39:06;;;;;;;22.92;13.52;;;-7.60;99.90;;;;;;4961888;28;20427;-72
2023/01/23 00:41:34;;;;;;;20.00;13.82;;;-7.60;99.90;;;;;;4966896;28;20054;-72
2023/01/23 00:44:03;;;;;;;22.42;15.02;;;-7.60;99.90;;;;;;4950038;28;20043;-72
2023/01/23 00:46:34;;;;;;;15.23;10.57;;;-7.60;99.90;;;;;;4967785;28;20051;-72
2023/01/23 00:49:02;;;;;;;16.08;13.02;;;-7.50;99.90;;;;;;4967810;28;20047;-72
2023/01/23 00:51:33;;;;;;;19.67;12.10;;;-7.50;99.90;;;;;;4968068;28;20055;-72
2023/01/23 00:54:02;;;;;;;30.20;13.27;;;-7.30;99.90;;;;;;4948205;28;20144;-72
2023/01/23 00:56:29;;;;;;;19.48;15.10;;;-7.20;99.90;;;;;;4966925;28;20054;-72
2023/01/23 00:59:00;;;;;;;23.13;13.15;;;-7.00;99.90;;;;;;4950831;28;20054;-72
2023/01/23 01:01:30;;;;;;;22.27;15.57;;;-7.00;99.90;;;;;;4918433;28;20042;-73
2023/01/23 01:03:59;;;;;;;27.15;13.63;;;-7.10;99.90;;;;;;4967336;28;20427;-72
2023/01/23 01:06:28;;;;;;;21.38;13.65;;;-7.30;99.90;;;;;;4968049;28;20427;-72
2023/01/23 01:08:58;;;;;;;24.70;14.85;;;-7.50;99.90;;;;;;4938662;28;20047;-72
2023/01/23 01:11:26;;;;;;;37.90;14.23;;;-7.70;99.90;;;;;;4942878;28;20066;-72
2023/01/23 01:14:00;;;;;;;28.90;12.10;;;-7.70;99.90;;;;;;4951125;28;20093;-72
2023/01/23 01:16:27;;;;;;;28.13;14.65;;;-7.70;99.90;;;;;;4944131;28;20435;-71
2023/01/23 01:18:58;;;;;;;26.00;14.35;;;-7.60;99.90;;;;;;4949343;28;20062;-72
2023/01/23 01:21:26;;;;;;;22.65;13.88;;;-7.60;99.90;;;;;;4950365;28;20062;-72
2023/01/23 01:23:53;;;;;;;24.92;13.63;;;-7.50;99.90;;;;;;4966009;28;20058;-71
2023/01/23 01:26:22;;;;;;;16.60;11.98;;;-7.40;99.90;;;;;;4934672;28;20055;-72
2023/01/23 01:28:50;;;;;;;24.80;15.75;;;-7.30;99.90;;;;;;4953628;28;20047;-71
2023/01/23 01:31:18;;;;;;;26.25;15.50;;;-7.10;99.90;;;;;;4960820;28;20047;-72
2023/01/23 01:33:48;;;;;;;28.80;16.25;;;-6.90;99.90;;;;;;4971695;28;20039;-71
2023/01/23 01:36:19;;;;;;;27.20;14.52;;;-6.70;99.90;;;;;;4939067;28;20039;-72
2023/01/23 01:38:47;;;;;;;20.60;15.32;;;-6.60;99.90;;;;;;4976317;28;20043;-71
2023/01/23 01:41:16;;;;;;;20.45;13.30;;;-6.50;99.90;;;;;;4975052;28;20083;-73
2023/01/23 01:43:44;;;;;;;23.15;13.48;;;-6.50;99.90;;;;;;4958447;28;20057;-72
2023/01/23 01:46:17;;;;;;;19.13;11.57;;;-6.60;99.90;;;;;;4975943;28;20062;-71
2023/01/23 01:49:10;;;;;;;18.77;13.80;;;-6.50;99.90;;;;;;4976321;28;20056;-72
2023/01/23 01:52:43;;;;;;;26.85;13.52;;;-6.00;99.90;;;;;;4958492;28;20054;-72
2023/01/23 01:55:11;;;;;;;28.42;13.32;;;-5.60;99.90;;;;;;4975484;28;20063;-72
2023/01/23 01:57:43;;;;;;;21.42;11.07;;;-5.50;99.90;;;;;;4974063;28;20043;-72
2023/01/23 02:00:16;;;;;;;28.02;13.00;;;-5.50;99.90;;;;;;4975957;28;20043;-72
2023/01/23 02:02:54;;;;;;;19.45;11.57;;;-5.60;99.90;;;;;;4942630;29;20058;-84
2023/01/23 02:05:25;;;;;;;24.63;12.48;;;-5.70;99.90;;;;;;4939345;29;20077;-83
2023/01/23 02:08:18;;;;;;;22.45;13.40;;;-5.70;99.90;;;;;;4956163;28;20063;-84
2023/01/23 02:10:47;;;;;;;28.75;16.52;;;-5.70;99.90;;;;;;4955455;29;20047;-84
2023/01/23 02:13:33;;;;;;;20.48;11.95;;;-5.70;99.90;;;;;;4968505;28;20066;-81
2023/01/23 02:16:09;;;;;;;21.77;12.13;;;-5.70;99.90;;;;;;4975708;28;20395;-83
2023/01/23 02:18:43;;;;;;;22.33;13.45;;;-5.80;99.90;;;;;;4975902;28;20047;-83
2023/01/23 02:21:14;;;;;;;26.05;12.30;;;-5.80;99.90;;;;;;4975297;28;20062;-83
2023/01/23 02:23:55;;;;;;;;;;;-5.70;99.90;;;;;;4987000;28;20042;-83
2023/01/23 02:26:44;;;;;;;17.67;10.50;;;-5.60;99.90;;;;;;4981126;28;19936;-83
2023/01/23 02:29:13;;;;;;;22.80;13.07;;;-5.50;99.90;;;;;;4975956;28;20062;-84
2023/01/23 02:31:48;;;;;;;31.40;17.25;;;-5.40;99.90;;;;;;4980785;28;20045;-83
2023/01/23 02:34:16;;;;;;;29.30;16.80;;;-5.40;99.90;;;;;;4981058;28;20031;-81
2023/01/23 02:36:47;;;;;;;27.00;15.52;;;-5.40;99.90;;;;;;4963291;28;20043;-84
2023/01/23 02:39:17;;;;;;;31.35;15.68;;;-5.30;99.90;;;;;;4997053;28;20204;-79
2023/01/23 02:41:50;;;;;;;25.30;15.35;;;-5.20;99.90;;;;;;4980566;28;20040;-84
2023/01/23 02:44:25;;;;;;;;;;;-5.20;99.90;;;;;;4980073;28;20053;-83
2023/01/23 02:46:59;;;;;;;29.08;15.77;;;-5.10;99.90;;;;;;4976781;28;19916;-84
2023/01/23 02:49:27;;;;;;;26.80;14.38;;;-5.10;99.90;;;;;;4984121;28;20039;-84
2023/01/23 02:51:58;;;;;;;22.10;13.88;;;-5.00;99.90;;;;;;4980440;28;20038;-84
2023/01/23 02:54:25;;;;;;;24.73;14.27;;;-4.90;99.90;;;;;;4979326;28;20058;-82
2023/01/23 02:56:53;;;;;;;22.52;12.70;;;-4.90;99.90;;;;;;4996659;28;20045;-84
2023/01/23 03:02:09;;;;;;;18.98;11.07;;;-4.70;99.90;;;;;;4993984;28;20233;-84
2023/01/23 03:04:37;;;;;;;30.85;14.65;;;-4.60;99.90;;;;;;4993138;28;20050;-83
2023/01/23 03:07:04;;;;;;;24.52;14.15;;;-4.60;99.90;;;;;;4972749;28;20046;-84
2023/01/23 03:09:35;;;;;;;26.30;13.80;;;-4.50;99.90;;;;;;4989071;28;20050;-83
2023/01/23 03:12:03;;;;;;;19.50;15.57;;;-4.50;99.90;;;;;;4960843;28;20054;-83
2023/01/23 03:14:31;;;;;;;24.98;14.82;;;-4.50;99.90;;;;;;4988248;28;20060;-84
2023/01/23 03:16:58;;;;;;;29.98;16.40;;;-4.50;99.90;;;;;;4981599;28;20047;-83
2023/01/23 03:19:31;;;;;;;29.58;15.50;;;-4.50;99.90;;;;;;4952320;28;20058;-85
2023/01/23 03:21:59;;;;;;;23.40;14.05;;;-4.50;99.90;;;;;;4936467;28;19929;-83
2023/01/23 03:24:26;;;;;;;19.08;14.38;;;-4.50;99.90;;;;;;4968236;28;20054;-84
2023/01/23 03:26:54;;;;;;;27.73;18.50;;;-4.50;99.90;;;;;;4969429;28;20439;-83
2023/01/23 03:32:15;;;;;;;23.42;15.38;;;-4.50;99.90;;;;;;4954363;28;20046;-72
2023/01/23 03:34:44;;;;;;;23.92;12.90;;;-4.40;99.90;;;;;;4969261;28;20059;-72
2023/01/23 03:37:13;;;;;;;33.63;15.60;;;-4.50;99.90;;;;;;4968561;28;20058;-72
2023/01/23 03:42:37;;;;;;;20.45;14.15;;;-4.40;99.90;;;;;;4969312;28;20042;-72
2023/01/23 03:45:08;;;;;;;25.10;12.73;;;-4.30;99.90;;;;;;4951017;28;20065;-72
2023/01/23 03:47:36;;;;;;;19.95;12.20;;;-4.30;99.90;;;;;;4934492;28;20054;-72
2023/01/23 03:50:06;;;;;;;23.85;13.55;;;-4.40;99.90;;;;;;4950477;28;20064;-72
2023/01/23 03:52:36;;;;;;;;;;;-4.30;99.90;;;;;;4968299;28;20057;-72
2023/01/23 03:55:05;;;;;;;21.98;12.95;;;-4.30;99.90;;;;;;4948575;29;19922;-72
2023/01/23 03:57:33;;;;;;;27.45;14.45;;;-4.20;99.90;;;;;;4946895;29;20063;-72
2023/01/23 04:00:33;;;;;;;27.80;14.63;;;-4.10;99.90;;;;;;4937899;28;20040;-72
2023/01/23 04:03:04;;;;;;;;;;;-4.10;99.90;;;;;;4944347;29;20448;-72
2023/01/23 04:05:32;;;;;;;19.75;12.32;;;-4.10;99.90;;;;;;4948287;28;19926;-72
2023/01/23 04:08:01;;;;;;;16.00;12.32;;;-4.00;99.90;;;;;;4946604;28;20082;-72
2023/01/23 04:10:31;;;;;;;22.15;11.85;;;-4.00;99.90;;;;;;4947139;29;20051;-72
2023/01/23 04:13:05;;;;;;;24.38;11.95;;;-3.90;99.90;;;;;;4946742;28;20058;-72
2023/01/23 04:15:33;;;;;;;18.98;14.40;;;-3.90;99.90;;;;;;4943612;29;20051;-72
2023/01/23 04:18:04;;;;;;;21.67;12.18;;;-3.90;99.90;;;;;;4927891;29;20047;-72
2023/01/23 04:20:32;;;;;;;20.75;11.43;;;-3.90;99.90;;;;;;4939138;29;20039;-72
2023/01/23 04:23:00;;;;;;;29.45;13.25;;;-3.80;99.90;;;;;;4947340;29;20051;-72
2023/01/23 04:25:29;;;;;;;22.85;13.63;;;-3.90;99.90;;;;;;4947611;28;20051;-72
2023/01/23 04:27:57;;;;;;;25.52;15.18;;;-3.80;99.90;;;;;;4942723;28;20795;-72
2023/01/23 04:30:24;;;;;;;20.15;15.23;;;-3.80;99.90;;;;;;4940443;29;20071;-72
2023/01/23 04:32:52;;;;;;;19.63;13.45;;;-3.80;99.90;;;;;;4940755;28;20051;-72
2023/01/23 04:35:20;;;;;;;18.80;11.10;;;-3.80;99.90;;;;;;4935745;29;20059;-72
2023/01/23 04:37:47;;;;;;;17.67;12.68;;;-3.70;99.90;;;;;;4941392;29;20054;-72
2023/01/23 04:40:16;;;;;;;22.20;12.38;;;-3.70;99.90;;;;;;4945219;29;20055;-74
2023/01/23 04:42:51;;;;;;;16.58;12.07;;;-3.60;99.90;;;;;;4927306;29;20050;-72
2023/01/23 04:45:39;;;;;;;12.25;10.10;;;-3.70;99.90;;;;;;4937328;29;20385;-72
2023/01/23 04:48:26;;;;;;;17.52;11.57;;;-3.70;99.90;;;;;;4948296;28;20055;-72
2023/01/23 04:50:53;;;;;;;19.48;11.95;;;-3.70;99.90;;;;;;4942605;29;21368;-72
2023/01/23 04:53:21;;;;;;;17.40;11.85;;;-3.70;99.90;;;;;;4946664;28;20055;-72
2023/01/23 04:55:56;;;;;;;16.65;12.32;;;-3.70;99.90;;;;;;4947291;28;20055;-72
2023/01/23 04:58:24;;;;;;;18.17;12.55;;;-3.60;99.90;;;;;;4948172;28;20071;-72
2023/01/23 05:01:01;;;;;;;13.93;9.82;;;-3.50;99.90;;;;;;4940643;29;20052;-72
2023/01/23 05:03:33;;;;;;;22.10;11.20;;;-3.50;99.90;;;;;;4926973;29;20051;-72
2023/01/23 05:06:01;;;;;;;21.90;16.45;;;-3.50;99.90;;;;;;4941013;28;20039;-72
2023/01/23 05:08:29;;;;;;;19.10;13.13;;;-3.40;99.90;;;;;;4946106;29;20047;-72
2023/01/23 05:11:13;;;;;;;22.10;12.40;;;-3.40;99.90;;;;;;4945272;28;20059;-72
2023/01/23 05:13:41;;;;;;;16.88;12.82;;;-3.40;99.90;;;;;;4922772;29;20051;-72
2023/01/23 05:16:09;;;;;;;18.75;11.00;;;-3.40;99.90;;;;;;4952761;29;20055;-72
2023/01/23 05:18:56;;;;;;;13.75;9.68;;;-3.40;99.90;;;;;;4954544;28;20079;-72
2023/01/23 05:21:24;;;;;;;15.73;11.43;;;-3.30;99.90;;;;;;4952084;28;20047;-72
2023/01/23 05:23:52;;;;;;;17.58;11.07;;;-3.30;99.90;;;;;;4953125;28;20063;-72
2023/01/23 05:26:21;;;;;;;22.85;11.35;;;-3.30;99.90;;;;;;4952247;29;20070;-72
2023/01/23 05:28:50;;;;;;;17.48;10.30;;;-3.30;99.90;;;;;;4922939;29;20051;-72
2023/01/23 05:31:19;;;;;;;19.67;10.25;;;-3.30;99.90;;;;;;4943250;29;20060;-72
2023/01/23 05:34:05;;;;;;;18.17;11.68;;;-3.20;99.90;;;;;;4943545;28;20078;-72
2023/01/23 05:36:35;;;;;;;22.73;13.20;;;-3.20;99.90;;;;;;4935478;29;20062;-72
2023/01/23 05:39:02;;;;;;;16.50;11.25;;;-3.20;99.90;;;;;;4950325;28;20059;-72
2023/01/23 05:41:30;;;;;;;18.60;11.45;;;-3.20;99.90;;;;;;4931364;28;20052;-73
2023/01/23 05:44:15;;;;;;;24.02;13.00;;;-3.20;99.90;;;;;;4952410;28;20168;-72
2023/01/23 05:46:53;;;;;;;24.92;13.32;;;-3.20;99.90;;;;;;4948779;29;20051;-72
2023/01/23 05:49:21;;;;;;;16.55;12.50;;;-3.20;99.90;;;;;;4934078;29;20040;-72
2023/01/23 05:51:50;;;;;;;21.48;11.30;;;-3.20;99.90;;;;;;4947111;28;20059;-72
2023/01/23 05:54:18;;;;;;;26.23;14.00;;;-3.10;99.90;;;;;;4941878;28;20059;-72
2023/01/23 05:56:46;;;;;;;21.60;13.52;;;-3.10;99.90;;;;;;4954259;28;20054;-72
2023/01/23 05:59:32;;;;;;;21.15;12.15;;;-3.00;99.90;;;;;;4954414;28;20054;-72
2023/01/23 06:02:12;;;;;;;20.83;13.98;;;-3.00;99.90;;;;;;4919223;28;20062;-72
2023/01/23 06:04:59;;;;;;;24.85;12.73;;;-3.00;99.90;;;;;;4952609;28;20449;-72
2023/01/23 06:07:42;;;;;;;21.88;15.10;;;-2.90;99.90;;;;;;4943216;28;20373;-72
2023/01/23 06:10:09;;;;;;;21.45;13.02;;;-2.90;99.90;;;;;;4948501;29;20059;-72
2023/01/23 06:12:37;;;;;;;21.60;14.77;;;-2.90;99.90;;;;;;4935356;29;20047;-72
2023/01/23 06:15:06;;;;;;;26.15;14.15;;;-2.90;99.90;;;;;;4952478;29;20663;-72
2023/01/23 06:17:34;;;;;;;30.95;16.00;;;-2.90;99.90;;;;;;4951146;28;20047;-72
2023/01/23 06:20:03;;;;;;;23.90;16.35;;;-2.90;99.90;;;;;;4952894;28;20050;-72
2023/01/23 06:22:32;;;;;;;30.05;13.63;;;-2.90;99.90;;;;;;4951798;28;20050;-73
2023/01/23 06:25:05;;;;;;;30.00;16.25;;;-2.90;99.90;;;;;;4947510;28;20047;-71
2023/01/23 06:27:33;;;;;;;28.85;14.60;;;-2.90;99.90;;;;;;4941065;29;20066;-72
2023/01/23 06:30:07;;;;;;;30.70;15.68;;;-2.90;99.90;;;;;;4948087;29;20047;-72
2023/01/23 06:32:40;;;;;;;28.77;14.13;;;-2.90;99.90;;;;;;4946187;28;20062;-71
2023/01/23 06:35:10;;;;;;;30.63;16.30;;;-2.90;99.90;;;;;;4949661;28;20055;-72
2023/01/23 06:37:42;;;;;;;32.78;16.63;;;-2.80;99.90;;;;;;4932782;29;20043;-72
2023/01/23 06:40:14;;;;;;;27.55;15.57;;;-2.80;99.90;;;;;;4947960;29;20385;-73
2023/01/23 06:42:53;;;;;;;28.10;14.73;;;-2.80;99.90;;;;;;4939588;28;20054;-72
2023/01/23 06:45:26;;;;;;;28.65;18.27;;;-2.80;99.90;;;;;;4945682;28;20208;-72
2023/01/23 06:47:53;;;;;;;28.10;16.42;;;-2.80;99.90;;;;;;4943306;28;20047;-72
2023/01/23 06:50:22;;;;;;;31.60;14.38;;;-2.80;99.90;;;;;;4939726;29;20578;-72
2023/01/23 06:52:49;;;;;;;32.80;14.88;;;-2.80;99.90;;;;;;4948066;28;20140;-72
2023/01/23 06:55:20;;;;;;;26.63;15.48;;;-2.80;99.90;;;;;;4924369;29;20055;-72
2023/01/23 06:57:47;;;;;;;36.67;14.43;;;-2.80;99.90;;;;;;4927823;29;20050;-72
2023/01/23 07:00:15;;;;;;;32.40;15.73;;;-2.70;99.90;;;;;;4948850;29;20411;-72
2023/01/23 07:02:43;;;;;;;17.05;8.60;;;-2.80;99.90;;;;;;4924391;29;20062;-71
2023/01/23 07:05:12;;;;;;;25.13;16.63;;;-2.80;99.90;;;;;;4938640;29;20397;-71
2023/01/23 07:07:45;;;;;;;25.42;12.73;;;-2.80;99.90;;;;;;4942481;28;20408;-71
2023/01/23 07:10:12;;;;;;;16.90;13.75;;;-2.70;99.90;;;;;;4940522;29;20051;-71
2023/01/23 07:12:40;;;;;;;36.03;18.52;;;-2.70;99.90;;;;;;4950630;28;20043;-71
2023/01/23 07:15:09;;;;;;;37.97;17.83;;;-2.70;99.90;;;;;;4942218;29;20417;-71
2023/01/23 07:17:39;;;;;;;33.60;15.68;;;-2.70;99.90;;;;;;4930434;29;20055;-71
2023/01/23 07:20:08;;;;;;;32.55;16.83;;;-2.70;99.90;;;;;;4945827;29;20055;-72
2023/01/23 07:22:41;;;;;;;34.00;16.52;;;-2.60;99.90;;;;;;4941270;29;20419;-71
2023/01/23 07:25:09;;;;;;;23.15;14.60;;;-2.60;99.90;;;;;;4949207;28;20046;-71
2023/01/23 07:27:36;;;;;;;33.28;16.40;;;-2.60;99.90;;;;;;4949549;29;20047;-71
2023/01/23 07:30:04;;;;;;;39.78;20.58;;;-2.60;99.90;;;;;;4949794;29;20048;-71
2023/01/23 07:32:35;;;;;;;25.42;15.98;;;-2.60;99.90;;;;;;4949430;28;20050;-71
2023/01/23 07:35:03;;;;;;;30.40;13.30;;;-2.60;99.90;;;;;;4943395;28;20644;-71
2023/01/23 07:37:30;;;;;;;40.22;15.25;;;-2.50;99.90;;;;;;4944437;29;20047;-70
2023/01/23 07:39:58;;;;;;;29.13;17.05;;;-2.50;99.90;;;;;;4938699;28;20199;-71
2023/01/23 07:42:25;;;;;;;34.40;14.80;;;-2.50;99.90;;;;;;4949676;29;20048;-71
2023/01/23 07:44:53;;;;;;;32.65;16.17;;;-2.40;99.90;;;;;;4943312;28;20055;-71
2023/01/23 07:47:21;;;;;;;26.88;15.32;;;-2.40;99.90;;;;;;4941079;29;20040;-71
2023/01/23 07:49:48;;;;;;;27.90;16.67;;;-2.30;99.90;;;;;;4949364;28;20047;-71
2023/01/23 07:52:16;;;;;;;36.22;17.88;;;-2.30;99.90;;;;;;4940090;28;20058;-72
2023/01/23 07:54:43;;;;;;;31.13;15.10;;;-2.30;99.90;;;;;;4949174;29;20066;-72
2023/01/23 07:57:11;;;;;;;32.60;16.20;;;-2.20;99.90;;;;;;4949829;29;20047;-71
2023/01/23 07:59:38;;;;;;;30.13;14.35;;;-2.20;99.90;;;;;;4946059;29;20066;-73
2023/01/23 08:02:10;;;;;;;31.88;16.30;;;-2.10;99.90;;;;;;4932691;29;20051;-71
2023/01/23 08:04:38;;;;;;;20.00;14.07;;;-2.10;99.90;;;;;;4933058;28;20058;-70
2023/01/23 08:07:07;;;;;;;29.02;15.05;;;-2.10;99.90;;;;;;4949475;28;20427;-71
2023/01/23 08:09:34;;;;;;;29.02;15.55;;;-2.00;99.90;;;;;;4938324;28;20043;-71
2023/01/23 08:12:02;;;;;;;26.73;15.07;;;-2.00;99.90;;;;;;4948833;28;20066;-71
2023/01/23 08:14:30;;;;;;;21.55;14.05;;;-1.90;99.90;;;;;;4932758;29;20415;-71
2023/01/23 08:16:58;;;;;;;32.13;14.75;;;-1.90;99.90;;;;;;4952117;28;20048;-71
2023/01/23 08:19:26;;;;;;;34.60;17.60;;;-1.80;99.90;;;;;;4932090;29;20499;-71
2023/01/23 08:21:53;;;;;;;28.85;16.38;;;-1.80;99.90;;;;;;4940186;29;20043;-71
2023/01/23 08:24:21;;;;;;;16.45;11.18;;;-1.80;99.90;;;;;;4947852;28;20043;-71
2023/01/23 08:26:49;;;;;;;27.25;15.98;;;-1.70;99.90;;;;;;4950136;29;20070;-71
2023/01/23 08:29:17;;;;;;;17.50;11.65;;;-1.70;99.90;;;;;;4949785;29;20059;-72
2023/01/23 08:31:44;;;;;;;26.45;15.52;;;-1.70;99.90;;;;;;4940120;28;20066;-71
2023/01/23 08:34:12;;;;;;;25.05;15.98;;;-1.70;99.90;;;;;;4950442;29;20050;-71
2023/01/23 08:36:40;;;;;;;34.17;15.27;;;-1.70;99.90;;;;;;4949821;29;20058;-71
2023/01/23 08:39:08;;;;;;;30.98;17.48;;;-1.70;99.90;;;;;;4952809;29;20068;-71
2023/01/23 08:41:35;;;;;;;28.15;13.73;;;-1.70;99.90;;;;;;4935294;29;20047;-71
2023/01/23 08:44:03;;;;;;;29.15;16.85;;;-1.70;99.90;;;;;;4953423;28;20047;-71
2023/01/23 08:46:31;;;;;;;29.48;14.95;;;-1.60;99.90;;;;;;4951857;28;20059;-71
2023/01/23 08:48:59;;;;;;;36.28;18.75;;;-1.50;99.90;;;;;;4952796;29;20043;-71
2023/01/23 08:54:36;;;;;;;31.73;15.48;;;-1.50;99.90;;;;;;4926007;29;20043;-71
2023/01/23 08:57:04;;;;;;;34.50;19.60;;;-1.50;99.90;;;;;;4934768;29;20044;-71
2023/01/23 08:59:32;;;;;;;27.77;16.48;;;-1.40;99.90;;;;;;4926398;29;20051;-72
2023/01/23 09:01:59;;;;;;;32.58;15.15;;;-1.40;99.90;;;;;;4945271;28;20054;-71
2023/01/23 09:04:27;;;;;;;28.30;15.00;;;-1.30;99.90;;;;;;4959291;28;20073;-71
2023/01/23 09:06:55;;;;;;;34.50;15.55;;;-1.20;99.90;;;;;;4955731;28;20051;-71
2023/01/23 09:09:22;;;;;;;24.40;15.30;;;-1.30;99.90;;;;;;4953043;28;20047;-71
2023/01/23 09:11:50;;;;;;;26.77;17.08;;;-1.20;99.90;;;;;;4953478;28;20055;-70
2023/01/23 09:14:17;;;;;;;32.67;19.75;;;-1.10;99.90;;;;;;4949208;28;20058;-71
2023/01/23 09:16:45;;;;;;;24.60;14.30;;;-0.90;99.90;;;;;;4943598;28;20055;-71
2023/01/23 09:19:14;;;;;;;24.35;13.77;;;-0.90;99.90;;;;;;4950493;29;20764;-71
2023/01/23 09:27:04;;;;;;;24.48;12.52;;;-1.00;99.90;;;;;;4954071;28;20050;-72
2023/01/23 09:29:31;;;;;;;24.73;12.45;;;-1.00;99.90;;;;;;4971882;28;20047;-72
2023/01/23 09:31:59;;;;;;;28.73;13.85;;;-1.00;99.90;;;;;;4969384;28;20226;-71
2023/01/23 09:34:28;;;;;;;15.88;10.18;;;-1.10;99.90;;;;;;4976587;28;20135;-71
2023/01/23 09:36:55;;;;;;;27.13;14.43;;;-1.10;99.90;;;;;;4948573;29;20066;-72
2023/01/23 09:39:23;;;;;;;29.25;14.10;;;-1.10;99.90;;;;;;4968633;28;20329;-71
2023/01/23 09:41:50;;;;;;;23.38;15.27;;;-1.10;99.90;;;;;;4973295;28;20045;-71
2023/01/23 09:44:23;;;;;;;17.65;12.15;;;-1.10;99.90;;;;;;4972137;28;20087;-75
2023/01/23 09:47:01;;;;;;;29.63;13.30;;;-1.10;99.90;;;;;;4973423;28;20274;-71
2023/01/23 09:49:42;;;;;;;26.05;14.73;;;-1.10;99.90;;;;;;4974864;28;20814;-72
2023/01/23 09:52:21;;;;;;;13.02;11.27;;;-1.10;99.90;;;;;;4972159;28;20043;-71
2023/01/23 09:55:14;;;;;;;32.95;16.20;;;-1.10;99.90;;;;;;4965799;28;20209;-72
2023/01/23 09:57:48;;;;;;;15.55;12.65;;;-1.20;99.90;;;;;;4970218;28;20036;-71
2023/01/23 10:00:22;;;;;;;32.15;15.07;;;-1.10;99.90;;;;;;4948918;28;20213;-71
2023/01/23 10:02:52;;;;;;;28.13;16.65;;;-1.10;99.90;;;;;;4972795;28;20027;-72
2023/01/23 10:05:32;;;;;;;26.35;18.30;;;-1.10;99.90;;;;;;4974294;28;20043;-72
2023/01/23 10:08:15;;;;;;;23.70;10.90;;;-1.00;99.90;;;;;;4974941;28;20163;-72
2023/01/23 10:11:01;;;;;;;37.55;18.35;;;-0.90;99.90;;;;;;4976060;28;20035;-72
2023/01/23 10:13:39;;;;;;;31.90;18.20;;;-0.80;99.90;;;;;;4952406;28;20054;-71
2023/01/23 10:16:17;;;;;;;25.00;16.90;;;-0.80;99.90;;;;;;4940019;28;20051;-71
2023/01/23 10:19:01;;;;;;;29.40;16.40;;;-0.70;99.90;;;;;;4933007;29;20051;-71
2023/01/23 10:21:32;;;;;;;16.67;12.10;;;-0.70;99.90;;;;;;4946284;28;20070;-72
2023/01/23 10:24:12;;;;;;;25.03;15.03;;;-0.50;99.90;;;;;;4937553;28;20047;-71
2023/01/23 10:26:42;;;;;;;26.40;17.17;;;-0.50;99.90;;;;;;4939555;28;20870;-71
2023/01/23 10:29:27;;;;;;;27.25;17.48;;;-0.30;99.90;;;;;;4948531;28;20051;-71
2023/01/23 10:32:00;;;;;;;28.63;15.07;;;-0.30;99.90;;;;;;4942986;28;20511;-70
2023/01/23 10:34:42;;;;;;;19.25;12.15;;;-0.30;99.90;;;;;;4947798;28;20066;-71
2023/01/23 10:37:49;;;;;;;32.22;17.88;;;-0.30;99.90;;;;;;4948040;28;20730;-72
2023/01/23 10:43:19;;;;;;;30.38;17.27;;;0.20;99.90;;;;;;4939713;28;20055;-71
2023/01/23 10:45:48;;;;;;;25.88;14.80;;;0.30;99.90;;;;;;4940787;28;20058;-72
2023/01/23 10:48:31;;;;;;;30.90;15.57;;;0.40;99.90;;;;;;4940830;28;20047;-72
2023/01/23 10:51:03;;;;;;;32.40;19.17;;;0.40;99.90;;;;;;4947541;28;20055;-71
2023/01/23 10:53:30;;;;;;;19.65;13.85;;;0.50;99.90;;;;;;4931317;28;20062;-72
2023/01/23 10:55:59;;;;;;;28.52;17.05;;;0.50;99.90;;;;;;4948436;28;20050;-71
2023/01/23 10:58:37;;;;;;;23.70;13.75;;;0.40;99.90;;;;;;4948396;28;20062;-72
2023/01/23 11:01:18;;;;;;;14.80;10.63;;;0.40;99.90;;;;;;4941736;28;20047;-71
2023/01/23 11:03:46;;;;;;;23.35;15.48;;;0.10;99.90;;;;;;4929348;28;20063;-71
2023/01/23 11:06:19;;;;;;;25.52;15.27;;;0.00;99.90;;;;;;4947045;28;20051;-71
2023/01/23 11:08:51;;;;;;;22.77;15.82;;;-0.10;99.90;;;;;;4945993;28;20050;-71
2023/01/23 11:11:21;;;;;;;20.85;12.48;;;-0.20;99.90;;;;;;4937474;28;20070;-75
2023/01/23 11:14:05;;;;;;;24.42;15.05;;;-0.20;99.90;;;;;;4936802;28;20051;-71
2023/01/23 11:16:33;;;;;;;29.92;16.58;;;-0.20;99.90;;;;;;4945408;28;20447;-71
2023/01/23 11:19:06;;;;;;;20.95;12.60;;;-0.20;99.90;;;;;;4947900;28;20055;-71
2023/01/23 11:21:35;;;;;;;15.43;10.40;;;-0.20;99.90;;;;;;4937992;28;20055;-71
2023/01/23 11:24:29;;;;;;;22.40;15.73;;;-0.20;99.90;;;;;;4943246;28;20420;-71
2023/01/23 11:27:25;;;;;;;32.55;16.10;;;-0.10;99.90;;;;;;4947506;28;20365;-71
2023/01/23 11:30:09;;;;;;;23.70;14.13;;;-0.10;99.90;;;;;;4945622;28;20512;-73
2023/01/23 11:32:46;;;;;;;23.00;15.93;;;-0.10;99.90;;;;;;4941926;28;20058;-71
2023/01/23 11:35:19;;;;;;;23.40;17.10;;;-0.10;99.90;;;;;;4944424;28;20055;-72
2023/01/23 11:37:47;;;;;;;30.20;13.68;;;-0.10;99.90;;;;;;4942711;28;20043;-71
2023/01/23 11:40:18;;;;;;;28.02;15.23;;;-0.20;99.90;;;;;;4932964;29;20043;-71
2023/01/23 11:42:47;;;;;;;32.63;16.70;;;-0.10;99.90;;;;;;4946551;28;20094;-71
2023/01/23 11:45:36;;;;;;;16.30;12.35;;;-0.20;99.90;;;;;;4938555;28;20059;-70
2023/01/23 11:48:42;;;;;;;28.30;15.85;;;-0.20;99.90;;;;;;4945894;28;20051;-71
2023/01/23 11:51:20;;;;;;;32.45;14.48;;;-0.20;99.90;;;;;;4892349;28;20055;-71
2023/01/23 11:54:07;;;;;;;30.23;16.00;;;-0.10;99.90;;;;;;4945294;28;20055;-71
2023/01/23 11:56:34;;;;;;;32.70;18.38;;;0.00;99.90;;;;;;4940709;28;20050;-71
2023/01/23 11:59:21;;;;;;;23.92;14.80;;;0.10;99.90;;;;;;4946335;29;20058;-72
2023/01/23 12:01:49;;;;;;;26.77;16.10;;;0.20;99.90;;;;;;4945826;29;20050;-71
2023/01/23 12:04:29;;;;;;;32.40;18.35;;;0.30;99.90;;;;;;4947275;28;20070;-71
2023/01/23 12:07:02;;;;;;;24.23;15.68;;;0.30;99.90;;;;;;4946673;28;20872;-71
2023/01/23 12:09:44;;;;;;;24.70;15.30;;;0.30;99.90;;;;;;4945259;28;20062;-71
2023/01/23 12:12:43;;;;;;;;;;;0.20;99.90;;;;;;4939404;28;20053;-71
2023/01/23 12:15:26;;;;;;;24.77;15.43;;;0.40;99.90;;;;;;4905447;29;19927;-71
2023/01/23 12:18:15;;;;;;;22.55;14.73;;;0.40;99.90;;;;;;4928945;28;20647;-71
2023/01/23 12:20:59;;;;;;;36.10;19.87;;;0.40;99.90;;;;;;4948318;28;20047;-71
2023/01/23 12:23:45;;;;;;;27.02;14.85;;;0.40;99.90;;;;;;4943206;28;20433;-71
2023/01/23 12:26:18;;;;;;;17.02;11.73;;;0.50;99.90;;;;;;4939004;29;20051;-71
2023/01/23 12:29:00;;;;;;;20.90;14.10;;;0.50;99.90;;;;;;4944073;28;20073;-71
2023/01/23 12:31:55;;;;;;;25.30;16.85;;;0.50;99.90;;;;;;4946476;29;20055;-72
2023/01/23 12:34:43;;;;;;;23.00;13.88;;;0.60;99.90;;;;;;4940569;28;20278;-72
2023/01/23 12:37:42;;;;;;;32.60;15.10;;;0.60;99.90;;;;;;4926420;29;20065;-72
2023/01/23 12:40:21;;;;;;;18.23;12.63;;;0.50;99.90;;;;;;4945399;29;20055;-71
2023/01/23 12:43:03;;;;;;;26.35;13.43;;;0.40;99.90;;;;;;4929921;28;20070;-72
2023/01/23 12:45:32;;;;;;;25.33;18.50;;;0.40;99.90;;;;;;4953238;28;20062;-72
2023/01/23 12:48:31;;;;;;;28.58;18.58;;;0.30;99.90;;;;;;4929220;29;20281;-71
2023/01/23 12:51:09;;;;;;;25.65;16.42;;;0.40;99.90;;;;;;4914138;29;20079;-72
2023/01/23 12:53:38;;;;;;;25.50;14.77;;;0.50;99.90;;;;;;4942072;28;20387;-72
2023/01/23 12:56:18;;;;;;;25.67;15.75;;;0.40;99.90;;;;;;4922265;29;20745;-71
2023/01/23 12:59:18;;;;;;;27.85;16.33;;;0.30;99.90;;;;;;4903689;29;20071;-71
2023/01/23 13:02:08;;;;;;;27.70;16.10;;;0.20;99.90;;;;;;4882802;29;20067;-71
2023/01/23 13:05:06;;;;;;;28.95;16.05;;;0.20;99.90;;;;;;4900692;29;20421;-71
2023/01/23 13:07:51;;;;;;;12.50;8.82;;;0.30;99.90;;;;;;4927254;29;20412;-72
2023/01/23 13:13:35;;;;;;;38.17;16.50;;;0.30;99.90;;;;;;4904482;29;20089;-72
2023/01/23 13:16:09;;;;;;;26.88;15.15;;;0.20;99.90;;;;;;4916755;29;20043;-70
2023/01/23 13:27:44;;;;;;;28.80;18.67;;;0.20;99.90;;;;;;4925594;29;20063;-71
2023/01/23 13:30:20;;;;;;;22.02;14.48;;;0.20;99.90;;;;;;4921922;29;20056;-73
2023/01/23 13:32:51;;;;;;;24.52;13.85;;;0.20;99.90;;;;;;4928579;29;20050;-73